sensor_id;sensor_type;location;lat;lon;timestamp;P1;durP1;ratioP1;P2;durP2;ratioP2
8353;SDS011;4656;48.090;11.498;2023-03-14T00:00:20;0.50;;;0.50;;
8353;SDS011;4656;48.090;11.498;2023-03-14T00:02:22;0.68;;;0.68;;
8353;SDS011;4656;48.090;11.498;2023-03-14T00:04:25;0.63;;;0.60;;
8353;SDS011;4656;48.090;11.498;2023-03-14T00:06:29;0.47;;;0.47;;
8353;SDS011;4656;48.090;11.498;2023-03-14T00:08:32;0.70;;;0.70;;
8353;SDS011;4656;48.090;11.498;2023-03-14T00:10:35;1.00;;;0.60;;
8353;SDS011;4656;48.090;11.498;2023-03-14T00:12:37;0.55;;;0.55;;
8353;SDS011;4656;48.090;11.498;2023-03-14T00:14:40;1.17;;;0.47;;
8353;SDS011;4656;48.090;11.498;2023-03-14T00:16:45;1.35;;;0.60;;
8353;SDS011;4656;48.090;11.498;2023-03-14T00:18:47;0.50;;;0.50;;
8353;SDS011;4656;48.090;11.498;2023-03-14T00:20:51;0.50;;;0.50;;
8353;SDS011;4656;48.090;11.498;2023-03-14T00:22:53;0.75;;;0.50;;
8353;SDS011;4656;48.090;11.498;2023-03-14T00:24:55;0.60;;;0.60;;
8353;SDS011;4656;48.090;11.498;2023-03-14T00:26:59;0.60;;;0.60;;
8353;SDS011;4656;48.090;11.498;2023-03-14T00:29:02;0.57;;;0.57;;
8353;SDS011;4656;48.090;11.498;2023-03-14T00:31:04;0.70;;;0.40;;
8353;SDS011;4656;48.090;11.498;2023-03-14T00:33:09;0.90;;;0.50;;
8353;SDS011;4656;48.090;11.498;2023-03-14T00:35:12;0.50;;;0.50;;
8353;SDS011;4656;48.090;11.498;2023-03-14T00:37:15;0.50;;;0.40;;
8353;SDS011;4656;48.090;11.498;2023-03-14T00:39:17;0.80;;;0.50;;
8353;SDS011;4656;48.090;11.498;2023-03-14T00:41:20;0.50;;;0.50;;
8353;SDS011;4656;48.090;11.498;2023-03-14T00:43:23;0.40;;;0.40;;
8353;SDS011;4656;48.090;11.498;2023-03-14T00:45:25;0.47;;;0.47;;
8353;SDS011;4656;48.090;11.498;2023-03-14T00:47:27;0.60;;;0.60;;
8353;SDS011;4656;48.090;11.498;2023-03-14T00:49:30;0.50;;;0.50;;
8353;SDS011;4656;48.090;11.498;2023-03-14T00:51:32;0.60;;;0.60;;
8353;SDS011;4656;48.090;11.498;2023-03-14T00:53:36;0.50;;;0.50;;
8353;SDS011;4656;48.090;11.498;2023-03-14T00:55:38;0.40;;;0.40;;
8353;SDS011;4656;48.090;11.498;2023-03-14T00:57:40;0.47;;;0.47;;
8353;SDS011;4656;48.090;11.498;2023-03-14T00:59:43;0.65;;;0.65;;
8353;SDS011;4656;48.090;11.498;2023-03-14T01:01:45;0.63;;;0.50;;
8353;SDS011;4656;48.090;11.498;2023-03-14T01:03:47;2.00;;;0.73;;
8353;SDS011;4656;48.090;11.498;2023-03-14T01:05:49;0.90;;;0.52;;
8353;SDS011;4656;48.090;11.498;2023-03-14T01:07:52;0.50;;;0.50;;
8353;SDS011;4656;48.090;11.498;2023-03-14T01:09:58;0.43;;;0.43;;
8353;SDS011;4656;48.090;11.498;2023-03-14T01:12:02;0.47;;;0.47;;
8353;SDS011;4656;48.090;11.498;2023-03-14T01:14:05;0.47;;;0.47;;
8353;SDS011;4656;48.090;11.498;2023-03-14T01:16:07;2.05;;;0.60;;
8353;SDS011;4656;48.090;11.498;2023-03-14T01:18:10;1.17;;;0.55;;
8353;SDS011;4656;48.090;11.498;2023-03-14T01:20:13;1.02;;;0.70;;
8353;SDS011;4656;48.090;11.498;2023-03-14T01:22:15;5.30;;;0.80;;
8353;SDS011;4656;48.090;11.498;2023-03-14T01:24:17;1.10;;;0.47;;
8353;SDS011;4656;48.090;11.498;2023-03-14T01:26:22;1.90;;;0.80;;
8353;SDS011;4656;48.090;11.498;2023-03-14T01:28:24;2.80;;;0.73;;
8353;SDS011;4656;48.090;11.498;2023-03-14T01:30:27;2.60;;;0.80;;
8353;SDS011;4656;48.090;11.498;2023-03-14T01:32:29;2.45;;;0.98;;
8353;SDS011;4656;48.090;11.498;2023-03-14T01:34:31;1.08;;;0.77;;
8353;SDS011;4656;48.090;11.498;2023-03-14T01:36:33;8.48;;;1.83;;
8353;SDS011;4656;48.090;11.498;2023-03-14T01:38:36;7.13;;;0.93;;
8353;SDS011;4656;48.090;11.498;2023-03-14T01:40:42;5.30;;;0.90;;
8353;SDS011;4656;48.090;11.498;2023-03-14T01:42:46;6.55;;;0.98;;
8353;SDS011;4656;48.090;11.498;2023-03-14T01:44:52;5.03;;;1.00;;
8353;SDS011;4656;48.090;11.498;2023-03-14T01:46:54;4.88;;;0.98;;
8353;SDS011;4656;48.090;11.498;2023-03-14T01:48:59;7.68;;;1.08;;
8353;SDS011;4656;48.090;11.498;2023-03-14T01:51:03;3.30;;;1.00;;
8353;SDS011;4656;48.090;11.498;2023-03-14T01:53:06;2.00;;;1.10;;
8353;SDS011;4656;48.090;11.498;2023-03-14T01:55:09;3.20;;;1.20;;
8353;SDS011;4656;48.090;11.498;2023-03-14T01:57:14;4.22;;;0.90;;
8353;SDS011;4656;48.090;11.498;2023-03-14T01:59:19;1.92;;;0.93;;
8353;SDS011;4656;48.090;11.498;2023-03-14T02:01:21;1.15;;;1.05;;
8353;SDS011;4656;48.090;11.498;2023-03-14T02:03:26;4.07;;;1.20;;
8353;SDS011;4656;48.090;11.498;2023-03-14T02:05:30;1.40;;;0.90;;
8353;SDS011;4656;48.090;11.498;2023-03-14T02:07:35;2.58;;;1.10;;
8353;SDS011;4656;48.090;11.498;2023-03-14T02:09:38;2.50;;;0.93;;
8353;SDS011;4656;48.090;11.498;2023-03-14T02:11:41;0.90;;;0.90;;
8353;SDS011;4656;48.090;11.498;2023-03-14T02:13:43;1.23;;;0.83;;
8353;SDS011;4656;48.090;11.498;2023-03-14T02:15:46;1.33;;;0.90;;
8353;SDS011;4656;48.090;11.498;2023-03-14T02:17:48;2.47;;;0.90;;
8353;SDS011;4656;48.090;11.498;2023-03-14T02:19:55;3.30;;;0.90;;
8353;SDS011;4656;48.090;11.498;2023-03-14T02:21:59;3.22;;;0.90;;
8353;SDS011;4656;48.090;11.498;2023-03-14T02:24:04;4.00;;;0.80;;
8353;SDS011;4656;48.090;11.498;2023-03-14T02:26:08;1.63;;;0.77;;
8353;SDS011;4656;48.090;11.498;2023-03-14T02:28:13;1.30;;;0.70;;
8353;SDS011;4656;48.090;11.498;2023-03-14T02:30:17;1.20;;;0.88;;
8353;SDS011;4656;48.090;11.498;2023-03-14T02:32:20;1.90;;;0.70;;
8353;SDS011;4656;48.090;11.498;2023-03-14T02:34:23;1.38;;;0.65;;
8353;SDS011;4656;48.090;11.498;2023-03-14T02:36:28;1.80;;;0.70;;
8353;SDS011;4656;48.090;11.498;2023-03-14T02:38:33;0.73;;;0.60;;
8353;SDS011;4656;48.090;11.498;2023-03-14T02:40:35;1.50;;;0.80;;
8353;SDS011;4656;48.090;11.498;2023-03-14T02:42:40;0.80;;;0.80;;
8353;SDS011;4656;48.090;11.498;2023-03-14T02:44:48;1.05;;;1.00;;
8353;SDS011;4656;48.090;11.498;2023-03-14T02:46:52;1.73;;;0.75;;
8353;SDS011;4656;48.090;11.498;2023-03-14T02:48:54;0.80;;;0.80;;
8353;SDS011;4656;48.090;11.498;2023-03-14T02:50:59;1.60;;;0.60;;
8353;SDS011;4656;48.090;11.498;2023-03-14T02:53:01;1.50;;;0.80;;
8353;SDS011;4656;48.090;11.498;2023-03-14T02:55:04;0.93;;;0.80;;
8353;SDS011;4656;48.090;11.498;2023-03-14T02:57:06;1.13;;;0.80;;
8353;SDS011;4656;48.090;11.498;2023-03-14T02:59:08;1.00;;;0.70;;
8353;SDS011;4656;48.090;11.498;2023-03-14T03:01:12;2.58;;;0.57;;
8353;SDS011;4656;48.090;11.498;2023-03-14T03:03:14;0.50;;;0.50;;
8353;SDS011;4656;48.090;11.498;2023-03-14T03:05:16;1.67;;;0.80;;
8353;SDS011;4656;48.090;11.498;2023-03-14T03:07:18;0.97;;;0.60;;
8353;SDS011;4656;48.090;11.498;2023-03-14T03:09:20;0.45;;;0.45;;
8353;SDS011;4656;48.090;11.498;2023-03-14T03:11:22;0.90;;;0.40;;
8353;SDS011;4656;48.090;11.498;2023-03-14T03:13:25;0.40;;;0.40;;
8353;SDS011;4656;48.090;11.498;2023-03-14T03:15:27;0.70;;;0.70;;
8353;SDS011;4656;48.090;11.498;2023-03-14T03:17:31;0.40;;;0.40;;
8353;SDS011;4656;48.090;11.498;2023-03-14T03:19:33;0.50;;;0.50;;
8353;SDS011;4656;48.090;11.498;2023-03-14T03:21:35;0.70;;;0.70;;
8353;SDS011;4656;48.090;11.498;2023-03-14T03:23:38;0.43;;;0.43;;
8353;SDS011;4656;48.090;11.498;2023-03-14T03:25:40;0.88;;;0.85;;
8353;SDS011;4656;48.090;11.498;2023-03-14T03:27:42;0.60;;;0.47;;
8353;SDS011;4656;48.090;11.498;2023-03-14T03:29:44;0.50;;;0.50;;
8353;SDS011;4656;48.090;11.498;2023-03-14T03:31:47;0.55;;;0.55;;
8353;SDS011;4656;48.090;11.498;2023-03-14T03:33:51;1.08;;;0.70;;
8353;SDS011;4656;48.090;11.498;2023-03-14T03:35:53;0.43;;;0.43;;
8353;SDS011;4656;48.090;11.498;2023-03-14T03:37:55;0.70;;;0.40;;
8353;SDS011;4656;48.090;11.498;2023-03-14T03:39:57;0.55;;;0.40;;
8353;SDS011;4656;48.090;11.498;2023-03-14T03:42:00;0.65;;;0.40;;
8353;SDS011;4656;48.090;11.498;2023-03-14T03:44:05;1.30;;;0.50;;
8353;SDS011;4656;48.090;11.498;2023-03-14T03:46:07;0.50;;;0.50;;
8353;SDS011;4656;48.090;11.498;2023-03-14T03:48:09;0.20;;;0.20;;
8353;SDS011;4656;48.090;11.498;2023-03-14T03:50:13;0.32;;;0.32;;
8353;SDS011;4656;48.090;11.498;2023-03-14T03:52:15;0.35;;;0.35;;
8353;SDS011;4656;48.090;11.498;2023-03-14T03:54:20;0.40;;;0.40;;
8353;SDS011;4656;48.090;11.498;2023-03-14T03:56:22;1.13;;;0.57;;
8353;SDS011;4656;48.090;11.498;2023-03-14T03:58:24;0.40;;;0.40;;
8353;SDS011;4656;48.090;11.498;2023-03-14T04:00:26;0.93;;;0.30;;
8353;SDS011;4656;48.090;11.498;2023-03-14T04:02:28;0.40;;;0.40;;
8353;SDS011;4656;48.090;11.498;2023-03-14T04:04:31;0.30;;;0.30;;
8353;SDS011;4656;48.090;11.498;2023-03-14T04:06:34;0.50;;;0.50;;
8353;SDS011;4656;48.090;11.498;2023-03-14T04:08:36;0.40;;;0.40;;
8353;SDS011;4656;48.090;11.498;2023-03-14T04:10:38;2.00;;;0.40;;
8353;SDS011;4656;48.090;11.498;2023-03-14T04:12:43;0.32;;;0.32;;
8353;SDS011;4656;48.090;11.498;2023-03-14T04:14:45;0.40;;;0.40;;
8353;SDS011;4656;48.090;11.498;2023-03-14T04:16:48;0.50;;;0.40;;
8353;SDS011;4656;48.090;11.498;2023-03-14T04:18:51;0.60;;;0.43;;
8353;SDS011;4656;48.090;11.498;2023-03-14T04:20:53;0.30;;;0.30;;
8353;SDS011;4656;48.090;11.498;2023-03-14T04:22:57;0.80;;;0.40;;
8353;SDS011;4656;48.090;11.498;2023-03-14T04:24:59;0.35;;;0.35;;
8353;SDS011;4656;48.090;11.498;2023-03-14T04:27:02;0.80;;;0.50;;
8353;SDS011;4656;48.090;11.498;2023-03-14T04:29:04;1.23;;;0.50;;
8353;SDS011;4656;48.090;11.498;2023-03-14T04:31:07;1.20;;;0.50;;
8353;SDS011;4656;48.090;11.498;2023-03-14T04:33:09;0.47;;;0.47;;
8353;SDS011;4656;48.090;11.498;2023-03-14T04:35:12;0.55;;;0.52;;
8353;SDS011;4656;48.090;11.498;2023-03-14T04:37:14;0.43;;;0.43;;
8353;SDS011;4656;48.090;11.498;2023-03-14T04:39:18;0.30;;;0.30;;
8353;SDS011;4656;48.090;11.498;2023-03-14T04:41:20;0.22;;;0.22;;
8353;SDS011;4656;48.090;11.498;2023-03-14T04:43:22;0.40;;;0.40;;
8353;SDS011;4656;48.090;11.498;2023-03-14T04:45:25;0.30;;;0.30;;
8353;SDS011;4656;48.090;11.498;2023-03-14T04:47:27;0.40;;;0.40;;
8353;SDS011;4656;48.090;11.498;2023-03-14T04:49:30;0.40;;;0.40;;
8353;SDS011;4656;48.090;11.498;2023-03-14T04:51:32;0.85;;;0.30;;
8353;SDS011;4656;48.090;11.498;2023-03-14T04:53:34;1.25;;;0.50;;
8353;SDS011;4656;48.090;11.498;2023-03-14T04:55:38;0.30;;;0.30;;
8353;SDS011;4656;48.090;11.498;2023-03-14T04:57:40;0.30;;;0.30;;
8353;SDS011;4656;48.090;11.498;2023-03-14T04:59:42;0.38;;;0.38;;
8353;SDS011;4656;48.090;11.498;2023-03-14T05:01:44;0.60;;;0.50;;
8353;SDS011;4656;48.090;11.498;2023-03-14T05:03:48;0.70;;;0.50;;
8353;SDS011;4656;48.090;11.498;2023-03-14T05:05:50;0.30;;;0.30;;
8353;SDS011;4656;48.090;11.498;2023-03-14T05:07:53;0.40;;;0.30;;
8353;SDS011;4656;48.090;11.498;2023-03-14T05:09:55;0.40;;;0.40;;
8353;SDS011;4656;48.090;11.498;2023-03-14T05:11:58;0.40;;;0.40;;
8353;SDS011;4656;48.090;11.498;2023-03-14T05:14:00;0.40;;;0.40;;
8353;SDS011;4656;48.090;11.498;2023-03-14T05:16:03;0.40;;;0.40;;
8353;SDS011;4656;48.090;11.498;2023-03-14T05:18:06;2.20;;;0.50;;
8353;SDS011;4656;48.090;11.498;2023-03-14T05:20:10;0.80;;;0.45;;
8353;SDS011;4656;48.090;11.498;2023-03-14T05:22:13;0.40;;;0.40;;
8353;SDS011;4656;48.090;11.498;2023-03-14T05:24:15;1.40;;;0.50;;
8353;SDS011;4656;48.090;11.498;2023-03-14T05:26:17;0.50;;;0.50;;
8353;SDS011;4656;48.090;11.498;2023-03-14T05:28:20;0.30;;;0.30;;
8353;SDS011;4656;48.090;11.498;2023-03-14T05:30:23;0.40;;;0.40;;
8353;SDS011;4656;48.090;11.498;2023-03-14T05:32:25;0.32;;;0.32;;
8353;SDS011;4656;48.090;11.498;2023-03-14T05:34:27;1.30;;;0.40;;
8353;SDS011;4656;48.090;11.498;2023-03-14T05:36:29;0.57;;;0.50;;
8353;SDS011;4656;48.090;11.498;2023-03-14T05:38:34;0.40;;;0.40;;
8353;SDS011;4656;48.090;11.498;2023-03-14T05:40:36;0.40;;;0.40;;
8353;SDS011;4656;48.090;11.498;2023-03-14T05:42:38;0.32;;;0.32;;
8353;SDS011;4656;48.090;11.498;2023-03-14T05:44:42;0.90;;;0.40;;
8353;SDS011;4656;48.090;11.498;2023-03-14T05:46:44;0.40;;;0.40;;
8353;SDS011;4656;48.090;11.498;2023-03-14T05:48:46;0.70;;;0.40;;
8353;SDS011;4656;48.090;11.498;2023-03-14T05:50:53;0.90;;;0.40;;
8353;SDS011;4656;48.090;11.498;2023-03-14T05:52:56;0.30;;;0.30;;
8353;SDS011;4656;48.090;11.498;2023-03-14T05:54:58;0.50;;;0.50;;
8353;SDS011;4656;48.090;11.498;2023-03-14T05:57:00;0.65;;;0.57;;
8353;SDS011;4656;48.090;11.498;2023-03-14T05:59:02;0.60;;;0.60;;
8353;SDS011;4656;48.090;11.498;2023-03-14T06:01:06;1.10;;;0.50;;
8353;SDS011;4656;48.090;11.498;2023-03-14T06:03:09;0.40;;;0.40;;
8353;SDS011;4656;48.090;11.498;2023-03-14T06:05:11;0.30;;;0.30;;
8353;SDS011;4656;48.090;11.498;2023-03-14T06:07:13;0.40;;;0.40;;
8353;SDS011;4656;48.090;11.498;2023-03-14T06:09:15;0.30;;;0.30;;
8353;SDS011;4656;48.090;11.498;2023-03-14T06:11:19;0.50;;;0.50;;
8353;SDS011;4656;48.090;11.498;2023-03-14T06:13:21;1.20;;;0.50;;
8353;SDS011;4656;48.090;11.498;2023-03-14T06:15:24;0.47;;;0.47;;
8353;SDS011;4656;48.090;11.498;2023-03-14T06:17:27;0.60;;;0.40;;
8353;SDS011;4656;48.090;11.498;2023-03-14T06:19:29;0.40;;;0.40;;
8353;SDS011;4656;48.090;11.498;2023-03-14T06:21:31;0.43;;;0.43;;
8353;SDS011;4656;48.090;11.498;2023-03-14T06:23:33;0.45;;;0.45;;
8353;SDS011;4656;48.090;11.498;2023-03-14T06:25:35;1.02;;;0.60;;
8353;SDS011;4656;48.090;11.498;2023-03-14T06:27:38;2.85;;;0.98;;
8353;SDS011;4656;48.090;11.498;2023-03-14T06:29:42;1.00;;;0.63;;
8353;SDS011;4656;48.090;11.498;2023-03-14T06:31:47;2.00;;;0.70;;
8353;SDS011;4656;48.090;11.498;2023-03-14T06:33:51;2.05;;;0.80;;
8353;SDS011;4656;48.090;11.498;2023-03-14T06:35:53;0.93;;;0.80;;
8353;SDS011;4656;48.090;11.498;2023-03-14T06:37:58;0.85;;;0.80;;
8353;SDS011;4656;48.090;11.498;2023-03-14T06:40:00;1.13;;;0.85;;
8353;SDS011;4656;48.090;11.498;2023-03-14T06:42:03;1.58;;;0.68;;
8353;SDS011;4656;48.090;11.498;2023-03-14T06:44:05;0.63;;;0.63;;
8353;SDS011;4656;48.090;11.498;2023-03-14T06:46:10;0.80;;;0.80;;
8353;SDS011;4656;48.090;11.498;2023-03-14T06:48:12;3.20;;;0.82;;
8353;SDS011;4656;48.090;11.498;2023-03-14T06:50:15;0.75;;;0.75;;
8353;SDS011;4656;48.090;11.498;2023-03-14T06:52:17;0.70;;;0.70;;
8353;SDS011;4656;48.090;11.498;2023-03-14T06:54:19;0.75;;;0.70;;
8353;SDS011;4656;48.090;11.498;2023-03-14T06:56:23;3.40;;;0.60;;
8353;SDS011;4656;48.090;11.498;2023-03-14T06:58:25;1.25;;;0.75;;
8353;SDS011;4656;48.090;11.498;2023-03-14T07:00:27;0.95;;;0.40;;
8353;SDS011;4656;48.090;11.498;2023-03-14T07:02:30;0.60;;;0.50;;
8353;SDS011;4656;48.090;11.498;2023-03-14T07:04:32;1.48;;;0.52;;
8353;SDS011;4656;48.090;11.498;2023-03-14T07:06:38;0.55;;;0.55;;
8353;SDS011;4656;48.090;11.498;2023-03-14T07:08:44;0.60;;;0.60;;
8353;SDS011;4656;48.090;11.498;2023-03-14T07:10:46;2.28;;;0.50;;
8353;SDS011;4656;48.090;11.498;2023-03-14T07:12:48;1.27;;;0.52;;
8353;SDS011;4656;48.090;11.498;2023-03-14T07:14:50;1.27;;;0.50;;
8353;SDS011;4656;48.090;11.498;2023-03-14T07:16:53;0.93;;;0.75;;
8353;SDS011;4656;48.090;11.498;2023-03-14T07:18:58;0.70;;;0.60;;
8353;SDS011;4656;48.090;11.498;2023-03-14T07:21:00;2.00;;;0.52;;
8353;SDS011;4656;48.090;11.498;2023-03-14T07:23:04;0.70;;;0.60;;
8353;SDS011;4656;48.090;11.498;2023-03-14T07:25:06;0.60;;;0.60;;
8353;SDS011;4656;48.090;11.498;2023-03-14T07:27:09;1.30;;;0.70;;
8353;SDS011;4656;48.090;11.498;2023-03-14T07:29:12;2.25;;;0.45;;
8353;SDS011;4656;48.090;11.498;2023-03-14T07:31:14;2.78;;;0.73;;
8353;SDS011;4656;48.090;11.498;2023-03-14T07:33:16;0.60;;;0.50;;
8353;SDS011;4656;48.090;11.498;2023-03-14T07:35:18;0.40;;;0.40;;
8353;SDS011;4656;48.090;11.498;2023-03-14T07:37:20;1.20;;;0.63;;
8353;SDS011;4656;48.090;11.498;2023-03-14T07:39:24;0.75;;;0.50;;
8353;SDS011;4656;48.090;11.498;2023-03-14T07:41:26;0.60;;;0.60;;
8353;SDS011;4656;48.090;11.498;2023-03-14T07:43:28;0.50;;;0.50;;
8353;SDS011;4656;48.090;11.498;2023-03-14T07:45:30;0.50;;;0.50;;
8353;SDS011;4656;48.090;11.498;2023-03-14T07:47:32;0.47;;;0.47;;
8353;SDS011;4656;48.090;11.498;2023-03-14T07:49:34;0.52;;;0.52;;
8353;SDS011;4656;48.090;11.498;2023-03-14T07:51:36;0.40;;;0.40;;
8353;SDS011;4656;48.090;11.498;2023-03-14T07:53:38;0.40;;;0.40;;
8353;SDS011;4656;48.090;11.498;2023-03-14T07:55:42;0.95;;;0.45;;
8353;SDS011;4656;48.090;11.498;2023-03-14T07:57:44;0.40;;;0.40;;
8353;SDS011;4656;48.090;11.498;2023-03-14T07:59:46;0.50;;;0.50;;
8353;SDS011;4656;48.090;11.498;2023-03-14T08:01:51;0.50;;;0.50;;
8353;SDS011;4656;48.090;11.498;2023-03-14T08:03:53;0.60;;;0.60;;
8353;SDS011;4656;48.090;11.498;2023-03-14T08:05:55;0.45;;;0.45;;
8353;SDS011;4656;48.090;11.498;2023-03-14T08:07:58;0.57;;;0.50;;
8353;SDS011;4656;48.090;11.498;2023-03-14T08:10:00;0.45;;;0.43;;
8353;SDS011;4656;48.090;11.498;2023-03-14T08:12:03;0.55;;;0.55;;
8353;SDS011;4656;48.090;11.498;2023-03-14T08:14:06;0.57;;;0.57;;
8353;SDS011;4656;48.090;11.498;2023-03-14T08:16:08;1.35;;;0.60;;
8353;SDS011;4656;48.090;11.498;2023-03-14T08:18:10;0.60;;;0.60;;
8353;SDS011;4656;48.090;11.498;2023-03-14T08:20:12;2.15;;;0.85;;
8353;SDS011;4656;48.090;11.498;2023-03-14T08:22:14;0.60;;;0.60;;
8353;SDS011;4656;48.090;11.498;2023-03-14T08:24:16;1.00;;;0.70;;
8353;SDS011;4656;48.090;11.498;2023-03-14T08:26:18;0.70;;;0.70;;
8353;SDS011;4656;48.090;11.498;2023-03-14T08:28:22;0.73;;;0.73;;
8353;SDS011;4656;48.090;11.498;2023-03-14T08:30:33;0.60;;;0.60;;
8353;SDS011;4656;48.090;11.498;2023-03-14T08:32:36;0.65;;;0.65;;
8353;SDS011;4656;48.090;11.498;2023-03-14T08:34:38;0.73;;;0.68;;
8353;SDS011;4656;48.090;11.498;2023-03-14T08:36:44;2.53;;;0.73;;
8353;SDS011;4656;48.090;11.498;2023-03-14T08:38:46;1.30;;;0.50;;
8353;SDS011;4656;48.090;11.498;2023-03-14T08:40:48;0.60;;;0.60;;
8353;SDS011;4656;48.090;11.498;2023-03-14T08:42:51;0.68;;;0.68;;
8353;SDS011;4656;48.090;11.498;2023-03-14T08:44:54;0.63;;;0.60;;
8353;SDS011;4656;48.090;11.498;2023-03-14T08:46:56;1.20;;;0.60;;
8353;SDS011;4656;48.090;11.498;2023-03-14T08:48:59;1.40;;;0.70;;
8353;SDS011;4656;48.090;11.498;2023-03-14T08:51:04;0.60;;;0.60;;
8353;SDS011;4656;48.090;11.498;2023-03-14T08:53:06;1.20;;;0.80;;
8353;SDS011;4656;48.090;11.498;2023-03-14T08:55:09;0.80;;;0.80;;
8353;SDS011;4656;48.090;11.498;2023-03-14T08:57:11;0.50;;;0.50;;
8353;SDS011;4656;48.090;11.498;2023-03-14T08:59:13;0.55;;;0.55;;
8353;SDS011;4656;48.090;11.498;2023-03-14T09:01:17;0.50;;;0.50;;
8353;SDS011;4656;48.090;11.498;2023-03-14T09:03:20;0.70;;;0.70;;
8353;SDS011;4656;48.090;11.498;2023-03-14T09:05:23;0.70;;;0.70;;
8353;SDS011;4656;48.090;11.498;2023-03-14T09:07:25;3.90;;;0.70;;
8353;SDS011;4656;48.090;11.498;2023-03-14T09:09:27;0.57;;;0.57;;
8353;SDS011;4656;48.090;11.498;2023-03-14T09:11:30;1.50;;;0.60;;
8353;SDS011;4656;48.090;11.498;2023-03-14T09:13:32;1.20;;;0.80;;
8353;SDS011;4656;48.090;11.498;2023-03-14T09:15:34;1.05;;;0.95;;
8353;SDS011;4656;48.090;11.498;2023-03-14T09:17:37;0.95;;;0.90;;
8353;SDS011;4656;48.090;11.498;2023-03-14T09:19:39;0.68;;;0.63;;
8353;SDS011;4656;48.090;11.498;2023-03-14T09:21:42;0.77;;;0.53;;
8353;SDS011;4656;48.090;11.498;2023-03-14T09:23:44;2.08;;;0.70;;
8353;SDS011;4656;48.090;11.498;2023-03-14T09:25:46;2.35;;;1.10;;
8353;SDS011;4656;48.090;11.498;2023-03-14T09:27:49;1.90;;;0.73;;
8353;SDS011;4656;48.090;11.498;2023-03-14T09:29:51;1.33;;;0.85;;
8353;SDS011;4656;48.090;11.498;2023-03-14T09:31:53;1.30;;;0.98;;
8353;SDS011;4656;48.090;11.498;2023-03-14T09:33:56;0.90;;;0.73;;
8353;SDS011;4656;48.090;11.498;2023-03-14T09:35:58;0.70;;;0.70;;
8353;SDS011;4656;48.090;11.498;2023-03-14T09:38:00;0.60;;;0.60;;
8353;SDS011;4656;48.090;11.498;2023-03-14T09:40:03;0.50;;;0.50;;
8353;SDS011;4656;48.090;11.498;2023-03-14T09:42:12;0.50;;;0.50;;
8353;SDS011;4656;48.090;11.498;2023-03-14T09:44:16;0.50;;;0.50;;
8353;SDS011;4656;48.090;11.498;2023-03-14T09:46:20;0.60;;;0.60;;
8353;SDS011;4656;48.090;11.498;2023-03-14T09:48:24;1.53;;;0.77;;
8353;SDS011;4656;48.090;11.498;2023-03-14T09:50:30;0.60;;;0.60;;
8353;SDS011;4656;48.090;11.498;2023-03-14T09:52:33;2.50;;;0.52;;
8353;SDS011;4656;48.090;11.498;2023-03-14T09:54:37;0.40;;;0.40;;
8353;SDS011;4656;48.090;11.498;2023-03-14T09:56:40;2.20;;;0.70;;
8353;SDS011;4656;48.090;11.498;2023-03-14T09:58:43;0.70;;;0.70;;
8353;SDS011;4656;48.090;11.498;2023-03-14T10:00:47;0.80;;;0.68;;
8353;SDS011;4656;48.090;11.498;2023-03-14T10:02:50;0.70;;;0.70;;
8353;SDS011;4656;48.090;11.498;2023-03-14T10:04:53;0.70;;;0.70;;
8353;SDS011;4656;48.090;11.498;2023-03-14T10:06:57;0.55;;;0.40;;
8353;SDS011;4656;48.090;11.498;2023-03-14T10:08:59;0.50;;;0.50;;
8353;SDS011;4656;48.090;11.498;2023-03-14T10:11:01;0.73;;;0.70;;
8353;SDS011;4656;48.090;11.498;2023-03-14T10:13:10;6.30;;;0.70;;
8353;SDS011;4656;48.090;11.498;2023-03-14T10:15:14;0.70;;;0.70;;
8353;SDS011;4656;48.090;11.498;2023-03-14T10:17:19;0.55;;;0.50;;
8353;SDS011;4656;48.090;11.498;2023-03-14T10:19:21;0.60;;;0.60;;
8353;SDS011;4656;48.090;11.498;2023-03-14T10:21:25;0.40;;;0.40;;
8353;SDS011;4656;48.090;11.498;2023-03-14T10:23:31;0.50;;;0.50;;
8353;SDS011;4656;48.090;11.498;2023-03-14T10:25:34;0.50;;;0.50;;
8353;SDS011;4656;48.090;11.498;2023-03-14T10:27:37;0.70;;;0.60;;
8353;SDS011;4656;48.090;11.498;2023-03-14T10:29:50;0.60;;;0.60;;
8353;SDS011;4656;48.090;11.498;2023-03-14T10:31:53;0.50;;;0.50;;
8353;SDS011;4656;48.090;11.498;2023-03-14T10:33:59;0.70;;;0.50;;
8353;SDS011;4656;48.090;11.498;2023-03-14T10:36:03;0.93;;;0.55;;
8353;SDS011;4656;48.090;11.498;2023-03-14T10:38:10;0.57;;;0.52;;
8353;SDS011;4656;48.090;11.498;2023-03-14T10:40:15;0.80;;;0.47;;
8353;SDS011;4656;48.090;11.498;2023-03-14T10:42:20;1.63;;;0.50;;
8353;SDS011;4656;48.090;11.498;2023-03-14T10:44:23;0.40;;;0.40;;
8353;SDS011;4656;48.090;11.498;2023-03-14T10:46:29;0.50;;;0.50;;
8353;SDS011;4656;48.090;11.498;2023-03-14T10:48:32;0.60;;;0.60;;
8353;SDS011;4656;48.090;11.498;2023-03-14T10:50:35;0.47;;;0.47;;
8353;SDS011;4656;48.090;11.498;2023-03-14T10:52:37;0.60;;;0.60;;
8353;SDS011;4656;48.090;11.498;2023-03-14T10:54:48;3.30;;;0.70;;
8353;SDS011;4656;48.090;11.498;2023-03-14T10:56:57;0.90;;;0.70;;
8353;SDS011;4656;48.090;11.498;2023-03-14T10:59:00;0.63;;;0.60;;
8353;SDS011;4656;48.090;11.498;2023-03-14T11:01:06;0.47;;;0.47;;
8353;SDS011;4656;48.090;11.498;2023-03-14T11:03:13;1.02;;;0.60;;
8353;SDS011;4656;48.090;11.498;2023-03-14T11:05:21;0.40;;;0.40;;
8353;SDS011;4656;48.090;11.498;2023-03-14T11:07:27;0.57;;;0.57;;
8353;SDS011;4656;48.090;11.498;2023-03-14T11:09:35;0.52;;;0.52;;
8353;SDS011;4656;48.090;11.498;2023-03-14T11:11:38;0.50;;;0.50;;
8353;SDS011;4656;48.090;11.498;2023-03-14T11:13:45;0.50;;;0.50;;
8353;SDS011;4656;48.090;11.498;2023-03-14T11:15:58;0.43;;;0.43;;
8353;SDS011;4656;48.090;11.498;2023-03-14T11:20:31;0.52;;;0.40;;
8353;SDS011;4656;48.090;11.498;2023-03-14T11:22:38;0.63;;;0.50;;
8353;SDS011;4656;48.090;11.498;2023-03-14T11:24:47;0.45;;;0.45;;
8353;SDS011;4656;48.090;11.498;2023-03-14T11:26:53;0.40;;;0.40;;
8353;SDS011;4656;48.090;11.498;2023-03-14T11:29:07;0.57;;;0.30;;
8353;SDS011;4656;48.090;11.498;2023-03-14T11:31:12;0.30;;;0.30;;
8353;SDS011;4656;48.090;11.498;2023-03-14T11:33:18;0.40;;;0.30;;
8353;SDS011;4656;48.090;11.498;2023-03-14T11:35:24;0.30;;;0.30;;
8353;SDS011;4656;48.090;11.498;2023-03-14T11:37:28;0.53;;;0.53;;
8353;SDS011;4656;48.090;11.498;2023-03-14T11:39:35;0.40;;;0.40;;
8353;SDS011;4656;48.090;11.498;2023-03-14T11:41:41;0.47;;;0.30;;
8353;SDS011;4656;48.090;11.498;2023-03-14T11:43:46;0.30;;;0.30;;
8353;SDS011;4656;48.090;11.498;2023-03-14T11:45:50;0.65;;;0.47;;
8353;SDS011;4656;48.090;11.498;2023-03-14T11:47:55;1.20;;;0.40;;
8353;SDS011;4656;48.090;11.498;2023-03-14T11:50:00;0.52;;;0.50;;
8353;SDS011;4656;48.090;11.498;2023-03-14T11:52:05;0.30;;;0.30;;
8353;SDS011;4656;48.090;11.498;2023-03-14T11:54:12;0.20;;;0.20;;
8353;SDS011;4656;48.090;11.498;2023-03-14T11:56:18;0.32;;;0.32;;
8353;SDS011;4656;48.090;11.498;2023-03-14T11:58:25;0.50;;;0.40;;
8353;SDS011;4656;48.090;11.498;2023-03-14T12:00:29;0.40;;;0.40;;
8353;SDS011;4656;48.090;11.498;2023-03-14T12:02:38;0.60;;;0.50;;
8353;SDS011;4656;48.090;11.498;2023-03-14T12:04:43;0.40;;;0.40;;
8353;SDS011;4656;48.090;11.498;2023-03-14T12:06:51;0.50;;;0.50;;
8353;SDS011;4656;48.090;11.498;2023-03-14T12:08:53;1.10;;;0.50;;
8353;SDS011;4656;48.090;11.498;2023-03-14T12:10:58;0.80;;;0.40;;
8353;SDS011;4656;48.090;11.498;2023-03-14T12:13:01;0.50;;;0.50;;
8353;SDS011;4656;48.090;11.498;2023-03-14T12:15:04;0.57;;;0.57;;
8353;SDS011;4656;48.090;11.498;2023-03-14T12:17:07;0.60;;;0.50;;
8353;SDS011;4656;48.090;11.498;2023-03-14T12:19:31;0.50;;;0.50;;
8353;SDS011;4656;48.090;11.498;2023-03-14T12:21:43;0.68;;;0.40;;
8353;SDS011;4656;48.090;11.498;2023-03-14T12:23:47;0.50;;;0.47;;
8353;SDS011;4656;48.090;11.498;2023-03-14T12:26:05;2.30;;;0.35;;
8353;SDS011;4656;48.090;11.498;2023-03-14T12:28:18;0.38;;;0.38;;
8353;SDS011;4656;48.090;11.498;2023-03-14T12:30:25;0.30;;;0.30;;
8353;SDS011;4656;48.090;11.498;2023-03-14T12:32:27;0.40;;;0.40;;
8353;SDS011;4656;48.090;11.498;2023-03-14T12:34:33;0.40;;;0.40;;
8353;SDS011;4656;48.090;11.498;2023-03-14T12:36:51;0.88;;;0.45;;